createdAt,value
2023-03-29T00:01:36.637Z,3.40
2023-03-29T00:06:38.195Z,3.45
2023-03-29T00:11:39.729Z,4.50
2023-03-29T00:16:41.355Z,3.92
2023-03-29T00:21:42.840Z,3.55
2023-03-29T00:26:44.343Z,3.83
2023-03-29T00:31:52.356Z,4.20
2023-03-29T00:36:57.880Z,4.10
2023-03-29T00:41:59.397Z,3.13
2023-03-29T00:47:00.959Z,2.92
2023-03-29T00:52:02.476Z,4.40
2023-03-29T00:57:05.152Z,4.00
2023-03-29T01:02:07.604Z,2.63
2023-03-29T01:07:35.885Z,2.85
2023-03-29T01:12:44.117Z,3.35
2023-03-29T01:17:50.406Z,3.15
2023-03-29T01:23:26.976Z,3.10
2023-03-29T01:28:34.183Z,2.78
2023-03-29T01:33:43.786Z,2.53
2023-03-29T01:38:56.971Z,3.00
2023-03-29T01:44:07.195Z,3.65
2023-03-29T01:49:22.413Z,3.33
2023-03-29T01:54:36.969Z,2.50
2023-03-29T01:59:43.338Z,2.58
2023-03-29T02:04:50.123Z,2.67
2023-03-29T02:09:53.754Z,3.00
2023-03-29T02:14:58.186Z,2.50
2023-03-29T02:20:14.704Z,2.90
2023-03-29T02:25:17.513Z,3.08
2023-03-29T02:30:21.039Z,1.98
2023-03-29T02:35:35.041Z,2.20
2023-03-29T02:40:39.161Z,1.83
2023-03-29T02:45:42.134Z,2.45
2023-03-29T02:50:49.818Z,2.50
2023-03-29T02:55:51.720Z,2.10
2023-03-29T03:00:53.578Z,2.50
2023-03-29T03:05:55.019Z,2.33
2023-03-29T03:10:56.614Z,1.70
2023-03-29T03:15:59.415Z,2.33
2023-03-29T03:21:04.603Z,2.40
2023-03-29T03:26:06.242Z,2.17
2023-03-29T03:31:16.126Z,2.25
2023-03-29T03:36:50.583Z,2.00
2023-03-29T03:46:53.915Z,2.97
2023-03-29T03:56:57.678Z,2.40
2023-03-29T04:02:12.788Z,1.73
2023-03-29T04:07:14.632Z,2.10
2023-03-29T04:12:35.809Z,2.67
2023-03-29T04:17:37.779Z,1.85
2023-03-29T04:22:53.848Z,2.20
2023-03-29T04:27:56.389Z,2.20
2023-03-29T04:33:13.201Z,1.92
2023-03-29T04:38:23.005Z,1.77
2023-03-29T04:43:25.873Z,2.20
2023-03-29T04:48:34.048Z,2.63
2023-03-29T04:53:36.743Z,2.05
2023-03-29T05:03:40.213Z,2.17
2023-03-29T05:08:55.298Z,3.08
2023-03-29T05:14:03.297Z,2.63
2023-03-29T05:19:11.627Z,3.28
2023-03-29T05:29:33.065Z,3.30
2023-03-29T05:40:08.369Z,4.03
2023-03-29T05:50:26.690Z,4.72
2023-03-29T05:55:30.122Z,3.35
2023-03-29T06:00:37.006Z,4.20
2023-03-29T06:06:00.522Z,3.58
2023-03-29T06:11:05.775Z,4.32
2023-03-29T06:16:37.598Z,4.05
2023-03-29T06:21:39.338Z,4.40
2023-03-29T06:26:42.063Z,3.85
2023-03-29T06:31:43.866Z,4.53
2023-03-29T06:37:01.485Z,2.50
2023-03-29T06:42:13.007Z,3.47
2023-03-29T06:47:33.647Z,4.18
2023-03-29T06:52:35.241Z,3.53
2023-03-29T06:57:36.818Z,3.63
2023-03-29T07:02:39.913Z,3.15
2023-03-29T07:08:11.804Z,3.53
2023-03-29T07:13:30.495Z,4.13
2023-03-29T07:18:34.135Z,4.15
2023-03-29T07:23:36.051Z,3.78
2023-03-29T07:28:39.330Z,3.67
2023-03-29T07:33:41.608Z,4.55
2023-03-29T07:38:44.143Z,4.05
2023-03-29T07:43:52.049Z,4.10
2023-03-29T07:48:58.204Z,6.78
2023-03-29T07:54:00.007Z,5.38
2023-03-29T07:59:16.857Z,2.85
2023-03-29T08:04:23.258Z,4.32
2023-03-29T08:09:45.003Z,3.60
2023-03-29T08:14:47.195Z,3.10
2023-03-29T08:19:55.417Z,4.13
2023-03-29T08:24:58.698Z,3.72
2023-03-29T08:30:08.165Z,4.43
2023-03-29T08:35:13.529Z,3.55
2023-03-29T08:40:29.967Z,2.55
2023-03-29T08:45:53.420Z,2.92
2023-03-29T08:51:00.225Z,2.63
2023-03-29T08:56:12.772Z,2.90
2023-03-29T09:01:37.536Z,3.25
2023-03-29T09:06:40.050Z,2.65
2023-03-29T09:12:03.406Z,2.83
2023-03-29T09:17:23.068Z,3.20
2023-03-29T09:22:41.013Z,2.67
2023-03-29T09:28:00.095Z,2.65
2023-03-29T09:33:37.245Z,2.35
2023-03-29T09:38:49.026Z,2.95
2023-03-29T09:43:52.191Z,2.80
2023-03-29T09:48:58.581Z,2.17
2023-03-29T09:54:01.138Z,2.38
2023-03-29T09:59:32.132Z,2.30
2023-03-29T10:04:34.261Z,2.67
2023-03-29T10:09:35.981Z,2.50
2023-03-29T10:14:54.252Z,2.22
2023-03-29T10:20:04.043Z,2.72
2023-03-29T10:25:13.198Z,2.75
2023-03-29T10:30:22.529Z,2.60
2023-03-29T10:35:40.032Z,2.60
2023-03-29T10:41:17.447Z,2.33
2023-03-29T10:46:28.311Z,3.50
2023-03-29T10:51:33.291Z,2.28
2023-03-29T10:56:50.784Z,2.20
2023-03-29T11:01:53.649Z,2.72
2023-03-29T11:07:20.052Z,3.17
2023-03-29T11:12:50.220Z,2.58
2023-03-29T11:17:58.228Z,2.70
2023-03-29T11:23:22.455Z,2.50
2023-03-29T11:28:54.221Z,2.47
2023-03-29T11:34:34.826Z,2.40
2023-03-29T11:40:10.824Z,2.50
2023-03-29T11:45:17.581Z,2.50
2023-03-29T11:50:29.180Z,2.40
2023-03-29T11:55:37.695Z,2.83
2023-03-29T12:00:46.692Z,2.45
2023-03-29T12:06:22.352Z,2.33
2023-03-29T12:11:36.244Z,2.42
2023-03-29T12:17:15.936Z,2.45
2023-03-29T12:22:22.332Z,2.83
2023-03-29T12:27:39.511Z,2.20
2023-03-29T12:33:21.590Z,2.60
2023-03-29T12:38:31.142Z,2.60
2023-03-29T12:43:51.562Z,2.13
2023-03-29T12:49:31.803Z,2.97
2023-03-29T12:54:33.785Z,3.30
2023-03-29T12:59:47.727Z,2.60
2023-03-29T13:04:53.704Z,2.75
2023-03-29T13:09:58.074Z,2.88
2023-03-29T13:15:02.807Z,2.25
2023-03-29T13:20:37.248Z,3.03
2023-03-29T13:26:00.624Z,3.85
2023-03-29T13:31:12.302Z,2.88
2023-03-29T13:36:24.946Z,3.95
2023-03-29T13:41:28.912Z,3.28
2023-03-29T13:46:41.897Z,5.00
2023-03-29T13:52:09.224Z,4.53
2023-03-29T13:57:24.754Z,4.25
2023-03-29T14:02:43.598Z,7.20
2023-03-29T14:07:50.034Z,5.72
2023-03-29T14:12:53.597Z,6.70
2023-03-29T14:17:58.993Z,6.88
2023-03-29T14:23:09.945Z,5.70
2023-03-29T14:28:26.253Z,5.60
2023-03-29T14:33:37.923Z,5.57
2023-03-29T14:38:39.921Z,3.50
2023-03-29T14:43:41.523Z,2.58
2023-03-29T14:48:43.423Z,3.00
2023-03-29T14:53:45.999Z,3.22
2023-03-29T14:58:47.647Z,1.95
2023-03-29T15:03:56.895Z,2.70
2023-03-29T15:09:06.236Z,3.45
2023-03-29T15:14:15.517Z,3.13
2023-03-29T15:24:30.639Z,2.42
2023-03-29T15:29:42.069Z,2.22
2023-03-29T15:34:43.588Z,2.92
2023-03-29T15:44:46.631Z,5.05
2023-03-29T15:49:48.119Z,3.90
2023-03-29T15:59:51.004Z,2.90
2023-03-29T16:04:53.406Z,3.20
2023-03-29T16:09:54.893Z,2.70
2023-03-29T16:19:57.807Z,5.90
2023-03-29T16:24:59.441Z,5.70
2023-03-29T16:30:01.143Z,3.72
2023-03-29T16:35:04.531Z,4.57
2023-03-29T16:40:07.753Z,4.15
2023-03-29T16:45:13.904Z,4.93
2023-03-29T16:50:18.886Z,4.93
2023-03-29T16:55:20.493Z,5.88
2023-03-29T17:05:23.407Z,4.13
2023-03-29T17:15:26.974Z,4.15
2023-03-29T17:20:28.772Z,3.90
2023-03-29T17:25:30.251Z,4.10
2023-03-29T17:35:35.078Z,6.38
2023-03-29T17:40:36.610Z,6.70
2023-03-29T17:45:38.167Z,5.13
2023-03-29T17:55:41.061Z,5.55
2023-03-29T18:00:42.559Z,5.70
2023-03-29T18:05:44.042Z,5.50
2023-03-29T18:15:47.507Z,4.55
2023-03-29T18:20:48.993Z,5.93
2023-03-29T18:30:52.387Z,4.07
2023-03-29T18:35:53.892Z,5.80
2023-03-29T18:40:55.456Z,7.13
2023-03-29T18:45:57.458Z,9.98
2023-03-29T18:50:58.961Z,6.90
2023-03-29T18:56:01.332Z,7.82
2023-03-29T19:01:05.362Z,7.45
2023-03-29T19:06:07.910Z,8.70
2023-03-29T19:11:11.480Z,9.68
2023-03-29T19:16:12.989Z,7.35
2023-03-29T19:21:14.504Z,7.95
2023-03-29T19:31:17.475Z,7.30
2023-03-29T19:36:18.959Z,9.35
2023-03-29T19:41:20.836Z,6.93
2023-03-29T19:46:22.905Z,9.73
2023-03-29T19:51:26.769Z,8.57
2023-03-29T19:56:28.260Z,8.77
2023-03-29T20:01:32.770Z,8.50
2023-03-29T20:06:34.784Z,5.38
2023-03-29T20:11:36.424Z,8.00
2023-03-29T20:16:44.813Z,6.80
2023-03-29T20:21:46.507Z,9.18
2023-03-29T20:31:49.826Z,5.70
2023-03-29T20:41:57.423Z,5.00
2023-03-29T20:47:05.063Z,7.90
2023-03-29T20:52:10.623Z,8.27
2023-03-29T20:57:19.047Z,7.80
2023-03-29T21:02:22.784Z,6.50
2023-03-29T21:07:24.407Z,6.10
2023-03-29T21:12:25.900Z,7.60
2023-03-29T21:17:27.911Z,6.03
2023-03-29T21:22:29.543Z,3.78
2023-03-29T21:27:31.066Z,4.35
2023-03-29T21:32:32.632Z,5.05
2023-03-29T21:42:35.490Z,6.05
2023-03-29T21:47:37.000Z,6.40
2023-03-29T21:52:38.581Z,7.13
2023-03-29T21:57:40.665Z,3.63
2023-03-29T22:02:42.625Z,7.15
2023-03-29T22:07:44.195Z,7.03
2023-03-29T22:12:45.716Z,7.65
2023-03-29T22:17:47.875Z,3.17
2023-03-29T22:22:50.711Z,6.95
2023-03-29T22:27:52.247Z,7.50
2023-03-29T22:32:53.741Z,7.05
2023-03-29T22:37:55.273Z,8.32
2023-03-29T22:42:57.067Z,6.97
2023-03-29T22:47:58.541Z,5.38
2023-03-29T22:53:00.018Z,7.18
2023-03-29T22:58:01.517Z,6.47
2023-03-29T23:03:03.096Z,5.95
2023-03-29T23:13:08.808Z,5.40
2023-03-29T23:18:13.084Z,6.35
2023-03-29T23:23:16.535Z,7.00
2023-03-29T23:28:21.542Z,5.85
2023-03-29T23:33:25.608Z,6.18
2023-03-29T23:38:27.761Z,5.55
2023-03-29T23:43:32.673Z,5.43
2023-03-29T23:48:34.729Z,4.75
2023-03-29T23:53:36.643Z,3.53
2023-03-29T23:58:38.140Z,5.57
